sensor_id;sensor_type;location;lat;lon;timestamp;pressure;altitude;pressure_sealevel;temperature;humidity
84289;BME280;74602;50.294;18.660;2023-12-20T00:00:47;98620.47;;;5.59;73.01
84289;BME280;74602;50.294;18.660;2023-12-20T00:03:12;98617.19;;;5.57;73.66
84289;BME280;74602;50.294;18.660;2023-12-20T00:05:37;98592.38;;;5.56;73.75
84289;BME280;74602;50.294;18.660;2023-12-20T00:08:06;98604.59;;;5.53;74.44
84289;BME280;74602;50.294;18.660;2023-12-20T00:10:31;98589.25;;;5.51;74.56
84289;BME280;74602;50.294;18.660;2023-12-20T00:12:57;98585.97;;;5.49;74.30
84289;BME280;74602;50.294;18.660;2023-12-20T00:15:22;98571.44;;;5.48;74.43
84289;BME280;74602;50.294;18.660;2023-12-20T00:17:47;98569.78;;;5.47;75.50
84289;BME280;74602;50.294;18.660;2023-12-20T00:20:13;98555.25;;;5.46;75.31
84289;BME280;74602;50.294;18.660;2023-12-20T00:22:38;98578.44;;;5.46;75.96
84289;BME280;74602;50.294;18.660;2023-12-20T00:25:04;98586.16;;;5.46;75.68
84289;BME280;74602;50.294;18.660;2023-12-20T00:27:29;98575.16;;;5.44;75.65
84289;BME280;74602;50.294;18.660;2023-12-20T00:29:55;98587.22;;;5.44;74.94
84289;BME280;74602;50.294;18.660;2023-12-20T00:32:20;98583.81;;;5.43;75.58
84289;BME280;74602;50.294;18.660;2023-12-20T00:34:45;98572.78;;;5.41;75.82
84289;BME280;74602;50.294;18.660;2023-12-20T00:37:11;98584.22;;;5.37;75.56
84289;BME280;74602;50.294;18.660;2023-12-20T00:39:36;98590.06;;;5.39;75.71
84289;BME280;74602;50.294;18.660;2023-12-20T00:42:01;98554.31;;;5.35;74.87
84289;BME280;74602;50.294;18.660;2023-12-20T00:44:27;98537.72;;;5.39;74.89
84289;BME280;74602;50.294;18.660;2023-12-20T00:46:52;98563.72;;;5.36;74.85
84289;BME280;74602;50.294;18.660;2023-12-20T00:49:17;98544.63;;;5.38;74.68
84289;BME280;74602;50.294;18.660;2023-12-20T00:51:43;98550.00;;;5.35;74.71
84289;BME280;74602;50.294;18.660;2023-12-20T00:54:08;98556.59;;;5.39;75.10
84289;BME280;74602;50.294;18.660;2023-12-20T00:56:34;98505.31;;;5.36;74.75
84289;BME280;74602;50.294;18.660;2023-12-20T00:58:59;98505.91;;;5.40;74.24
84289;BME280;74602;50.294;18.660;2023-12-20T01:01:25;98554.84;;;5.40;74.02
84289;BME280;74602;50.294;18.660;2023-12-20T01:03:50;98547.03;;;5.41;72.99
84289;BME280;74602;50.294;18.660;2023-12-20T01:06:16;98536.72;;;5.41;72.55
84289;BME280;74602;50.294;18.660;2023-12-20T01:08:42;98526.31;;;5.43;72.85
84289;BME280;74602;50.294;18.660;2023-12-20T01:11:07;98519.41;;;5.43;72.88
84289;BME280;74602;50.294;18.660;2023-12-20T01:13:32;98524.56;;;5.43;72.06
84289;BME280;74602;50.294;18.660;2023-12-20T01:15:58;98505.63;;;5.44;71.00
84289;BME280;74602;50.294;18.660;2023-12-20T01:18:23;98487.59;;;5.44;71.07
84289;BME280;74602;50.294;18.660;2023-12-20T01:20:48;98490.16;;;5.44;70.52
84289;BME280;74602;50.294;18.660;2023-12-20T01:23:14;98495.09;;;5.47;69.99
84289;BME280;74602;50.294;18.660;2023-12-20T01:25:39;98496.84;;;5.47;69.54
84289;BME280;74602;50.294;18.660;2023-12-20T01:28:05;98506.22;;;5.48;69.17
84289;BME280;74602;50.294;18.660;2023-12-20T01:30:30;98509.53;;;5.50;68.53
84289;BME280;74602;50.294;18.660;2023-12-20T01:32:55;98503.44;;;5.51;68.99
84289;BME280;74602;50.294;18.660;2023-12-20T01:35:21;98516.41;;;5.49;68.42
84289;BME280;74602;50.294;18.660;2023-12-20T01:37:46;98526.72;;;5.49;67.87
84289;BME280;74602;50.294;18.660;2023-12-20T01:40:12;98523.00;;;5.53;68.35
84289;BME280;74602;50.294;18.660;2023-12-20T01:42:37;98512.69;;;5.53;67.78
84289;BME280;74602;50.294;18.660;2023-12-20T01:45:03;98513.53;;;5.54;67.84
84289;BME280;74602;50.294;18.660;2023-12-20T01:47:29;98493.84;;;5.53;67.95
84289;BME280;74602;50.294;18.660;2023-12-20T01:49:54;98486.00;;;5.54;67.55
84289;BME280;74602;50.294;18.660;2023-12-20T01:52:22;98501.47;;;5.54;67.31
84289;BME280;74602;50.294;18.660;2023-12-20T01:54:48;98495.50;;;5.54;67.82
84289;BME280;74602;50.294;18.660;2023-12-20T01:57:14;98498.16;;;5.52;68.27
84289;BME280;74602;50.294;18.660;2023-12-20T01:59:40;98485.28;;;5.52;67.73
84289;BME280;74602;50.294;18.660;2023-12-20T02:02:06;98486.13;;;5.53;68.13
84289;BME280;74602;50.294;18.660;2023-12-20T02:04:32;98488.78;;;5.51;69.20
84289;BME280;74602;50.294;18.660;2023-12-20T02:06:58;98480.13;;;5.52;68.57
84289;BME280;74602;50.294;18.660;2023-12-20T02:09:24;98493.75;;;5.54;68.31
84289;BME280;74602;50.294;18.660;2023-12-20T02:11:50;98478.38;;;5.53;68.53
84289;BME280;74602;50.294;18.660;2023-12-20T02:14:15;98509.28;;;5.53;69.07
84289;BME280;74602;50.294;18.660;2023-12-20T02:16:41;98497.25;;;5.53;69.32
84289;BME280;74602;50.294;18.660;2023-12-20T02:19:13;98468.19;;;5.51;69.71
84289;BME280;74602;50.294;18.660;2023-12-20T02:21:39;98468.91;;;5.53;69.65
84289;BME280;74602;50.294;18.660;2023-12-20T02:24:05;98473.34;;;5.51;70.19
84289;BME280;74602;50.294;18.660;2023-12-20T02:26:32;98482.72;;;5.52;69.59
84289;BME280;74602;50.294;18.660;2023-12-20T02:28:59;98479.31;;;5.52;70.02
84289;BME280;74602;50.294;18.660;2023-12-20T02:31:24;98473.34;;;5.51;70.16
84289;BME280;74602;50.294;18.660;2023-12-20T02:33:50;98466.75;;;5.47;69.36
84289;BME280;74602;50.294;18.660;2023-12-20T02:36:15;98462.44;;;5.48;69.50
84289;BME280;74602;50.294;18.660;2023-12-20T02:38:40;98470.97;;;5.48;69.85
84289;BME280;74602;50.294;18.660;2023-12-20T02:41:06;98468.59;;;5.45;70.26
84289;BME280;74602;50.294;18.660;2023-12-20T02:43:31;98466.97;;;5.44;70.29
84289;BME280;74602;50.294;18.660;2023-12-20T02:45:57;98471.09;;;5.47;70.07
84289;BME280;74602;50.294;18.660;2023-12-20T02:48:22;98479.72;;;5.46;70.12
84289;BME280;74602;50.294;18.660;2023-12-20T02:50:47;98481.47;;;5.45;70.81
84289;BME280;74602;50.294;18.660;2023-12-20T02:53:14;98483.22;;;5.45;71.30
84289;BME280;74602;50.294;18.660;2023-12-20T02:55:39;98478.22;;;5.43;70.98
84289;BME280;74602;50.294;18.660;2023-12-20T02:58:05;98477.47;;;5.41;71.56
84289;BME280;74602;50.294;18.660;2023-12-20T03:00:30;98479.13;;;5.42;71.38
84289;BME280;74602;50.294;18.660;2023-12-20T03:02:55;98483.56;;;5.40;72.37
84289;BME280;74602;50.294;18.660;2023-12-20T03:05:21;98480.47;;;5.35;72.87
84289;BME280;74602;50.294;18.660;2023-12-20T03:07:46;98480.56;;;5.34;73.52
84289;BME280;74602;50.294;18.660;2023-12-20T03:10:11;98473.91;;;5.31;73.01
84289;BME280;74602;50.294;18.660;2023-12-20T03:12:37;98469.78;;;5.29;74.41
84289;BME280;74602;50.294;18.660;2023-12-20T03:15:02;98472.34;;;5.29;74.38
84289;BME280;74602;50.294;18.660;2023-12-20T03:17:28;98463.28;;;5.23;75.32
84289;BME280;74602;50.294;18.660;2023-12-20T03:19:53;98467.63;;;5.22;74.56
84289;BME280;74602;50.294;18.660;2023-12-20T03:22:18;98466.06;;;5.20;75.46
84289;BME280;74602;50.294;18.660;2023-12-20T03:24:44;98465.34;;;5.18;75.34
84289;BME280;74602;50.294;18.660;2023-12-20T03:27:09;98464.72;;;5.14;75.48
84289;BME280;74602;50.294;18.660;2023-12-20T03:29:34;98464.22;;;5.09;76.11
84289;BME280;74602;50.294;18.660;2023-12-20T03:32:00;98461.84;;;5.06;75.57
84289;BME280;74602;50.294;18.660;2023-12-20T03:34:26;98464.53;;;5.05;76.17
84289;BME280;74602;50.294;18.660;2023-12-20T03:36:52;98462.25;;;5.00;75.63
84289;BME280;74602;50.294;18.660;2023-12-20T03:39:17;98464.94;;;4.99;76.13
84289;BME280;74602;50.294;18.660;2023-12-20T03:41:42;98467.72;;;4.96;76.01
84289;BME280;74602;50.294;18.660;2023-12-20T03:44:08;98476.44;;;4.93;76.63
84289;BME280;74602;50.294;18.660;2023-12-20T03:46:33;98464.91;;;4.86;76.72
84289;BME280;74602;50.294;18.660;2023-12-20T03:48:58;98459.91;;;4.85;77.42
84289;BME280;74602;50.294;18.660;2023-12-20T03:51:24;98460.00;;;4.83;77.41
84289;BME280;74602;50.294;18.660;2023-12-20T03:53:49;98460.41;;;4.77;77.90
84289;BME280;74602;50.294;18.660;2023-12-20T03:56:14;98465.63;;;4.75;78.11
84289;BME280;74602;50.294;18.660;2023-12-20T03:58:40;98460.06;;;4.69;78.59
84289;BME280;74602;50.294;18.660;2023-12-20T04:01:10;98458.41;;;4.68;79.06
84289;BME280;74602;50.294;18.660;2023-12-20T04:03:37;98469.75;;;4.65;78.77
84289;BME280;74602;50.294;18.660;2023-12-20T04:06:02;98458.91;;;4.60;79.71
84289;BME280;74602;50.294;18.660;2023-12-20T04:08:28;98457.47;;;4.56;79.80
84289;BME280;74602;50.294;18.660;2023-12-20T04:10:53;98461.88;;;4.54;80.04
84289;BME280;74602;50.294;18.660;2023-12-20T04:13:18;98451.09;;;4.49;80.35
84289;BME280;74602;50.294;18.660;2023-12-20T04:15:44;98471.66;;;4.49;80.52
84289;BME280;74602;50.294;18.660;2023-12-20T04:18:09;98469.31;;;4.46;80.15
84289;BME280;74602;50.294;18.660;2023-12-20T04:20:35;98470.22;;;4.45;80.72
84289;BME280;74602;50.294;18.660;2023-12-20T04:23:00;98473.63;;;4.46;80.80
84289;BME280;74602;50.294;18.660;2023-12-20T04:25:26;98467.75;;;4.44;80.53
84289;BME280;74602;50.294;18.660;2023-12-20T04:27:51;98461.97;;;4.40;80.89
84289;BME280;74602;50.294;18.660;2023-12-20T04:30:17;98455.06;;;4.40;81.08
84289;BME280;74602;50.294;18.660;2023-12-20T04:32:42;98454.38;;;4.38;81.24
84289;BME280;74602;50.294;18.660;2023-12-20T04:35:07;98449.09;;;4.40;81.58
84289;BME280;74602;50.294;18.660;2023-12-20T04:37:33;98456.94;;;4.38;81.81
84289;BME280;74602;50.294;18.660;2023-12-20T04:39:59;98449.41;;;4.35;81.70
84289;BME280;74602;50.294;18.660;2023-12-20T04:42:24;98446.09;;;4.33;81.62
84289;BME280;74602;50.294;18.660;2023-12-20T04:44:49;98451.38;;;4.32;81.90
84289;BME280;74602;50.294;18.660;2023-12-20T04:47:15;98450.44;;;4.33;82.27
84289;BME280;74602;50.294;18.660;2023-12-20T04:49:40;98445.50;;;4.30;82.19
84289;BME280;74602;50.294;18.660;2023-12-20T04:52:05;98434.59;;;4.26;82.43
84289;BME280;74602;50.294;18.660;2023-12-20T04:54:31;98443.31;;;4.24;82.60
84289;BME280;74602;50.294;18.660;2023-12-20T04:56:56;98433.44;;;4.18;82.65
84289;BME280;74602;50.294;18.660;2023-12-20T04:59:22;98437.84;;;4.16;82.61
84289;BME280;74602;50.294;18.660;2023-12-20T05:01:47;98443.88;;;4.15;82.75
84289;BME280;74602;50.294;18.660;2023-12-20T05:04:12;98441.31;;;4.15;83.14
84289;BME280;74602;50.294;18.660;2023-12-20T05:06:38;98436.19;;;4.15;83.03
84289;BME280;74602;50.294;18.660;2023-12-20T05:09:03;98442.25;;;4.14;82.65
84289;BME280;74602;50.294;18.660;2023-12-20T05:11:29;98438.03;;;4.13;83.20
84289;BME280;74602;50.294;18.660;2023-12-20T05:13:55;98428.88;;;4.09;83.15
84289;BME280;74602;50.294;18.660;2023-12-20T05:16:21;98438.31;;;4.08;83.09
84289;BME280;74602;50.294;18.660;2023-12-20T05:18:48;98443.59;;;4.07;83.14
84289;BME280;74602;50.294;18.660;2023-12-20T05:21:14;98437.69;;;4.05;84.04
84289;BME280;74602;50.294;18.660;2023-12-20T05:23:40;98437.78;;;4.03;83.60
84289;BME280;74602;50.294;18.660;2023-12-20T05:26:05;98437.06;;;4.01;83.81
84289;BME280;74602;50.294;18.660;2023-12-20T05:28:31;98443.94;;;4.00;83.55
84289;BME280;74602;50.294;18.660;2023-12-20T05:30:56;98445.81;;;3.98;83.68
84289;BME280;74602;50.294;18.660;2023-12-20T05:33:22;98444.97;;;3.98;83.89
84289;BME280;74602;50.294;18.660;2023-12-20T05:35:47;98440.13;;;3.93;83.95
84289;BME280;74602;50.294;18.660;2023-12-20T05:38:12;98441.66;;;3.96;84.16
84289;BME280;74602;50.294;18.660;2023-12-20T05:40:38;98440.84;;;3.95;83.99
84289;BME280;74602;50.294;18.660;2023-12-20T05:43:03;98444.25;;;3.96;83.94
84289;BME280;74602;50.294;18.660;2023-12-20T05:45:29;98436.63;;;3.94;84.23
84289;BME280;74602;50.294;18.660;2023-12-20T05:47:54;98427.47;;;3.90;84.05
84289;BME280;74602;50.294;18.660;2023-12-20T05:50:20;98440.31;;;3.90;83.89
84289;BME280;74602;50.294;18.660;2023-12-20T05:52:46;98441.22;;;3.89;83.90
84289;BME280;74602;50.294;18.660;2023-12-20T05:55:11;98447.09;;;3.91;83.88
84289;BME280;74602;50.294;18.660;2023-12-20T05:57:37;98443.78;;;3.89;84.25
84289;BME280;74602;50.294;18.660;2023-12-20T06:00:02;98441.13;;;3.91;84.11
84289;BME280;74602;50.294;18.660;2023-12-20T06:02:28;98453.97;;;3.91;84.15
84289;BME280;74602;50.294;18.660;2023-12-20T06:04:54;98455.00;;;3.88;84.22
84289;BME280;74602;50.294;18.660;2023-12-20T06:07:19;98450.88;;;3.86;84.22
84289;BME280;74602;50.294;18.660;2023-12-20T06:09:45;98448.19;;;3.87;84.23
84289;BME280;74602;50.294;18.660;2023-12-20T06:12:11;98449.16;;;3.86;84.12
84289;BME280;74602;50.294;18.660;2023-12-20T06:14:36;98445.31;;;3.79;85.06
84289;BME280;74602;50.294;18.660;2023-12-20T06:17:02;98451.16;;;3.81;84.95
84289;BME280;74602;50.294;18.660;2023-12-20T06:19:28;98454.56;;;3.82;85.09
84289;BME280;74602;50.294;18.660;2023-12-20T06:21:53;98455.66;;;3.78;84.95
84289;BME280;74602;50.294;18.660;2023-12-20T06:24:19;98453.00;;;3.79;85.17
84289;BME280;74602;50.294;18.660;2023-12-20T06:26:44;98456.41;;;3.80;84.87
84289;BME280;74602;50.294;18.660;2023-12-20T06:29:10;98456.59;;;3.77;85.34
84289;BME280;74602;50.294;18.660;2023-12-20T06:31:35;98460.72;;;3.79;85.15
84289;BME280;74602;50.294;18.660;2023-12-20T06:34:00;98456.59;;;3.77;85.32
84289;BME280;74602;50.294;18.660;2023-12-20T06:36:26;98465.94;;;3.78;85.42
84289;BME280;74602;50.294;18.660;2023-12-20T06:38:52;98472.81;;;3.77;85.10
84289;BME280;74602;50.294;18.660;2023-12-20T06:41:17;98470.16;;;3.79;85.02
84289;BME280;74602;50.294;18.660;2023-12-20T06:43:43;98466.78;;;3.78;85.04
84289;BME280;74602;50.294;18.660;2023-12-20T06:46:08;98478.69;;;3.79;85.25
84289;BME280;74602;50.294;18.660;2023-12-20T06:48:34;98464.38;;;3.75;85.26
84289;BME280;74602;50.294;18.660;2023-12-20T06:51:00;98468.69;;;3.75;85.25
84289;BME280;74602;50.294;18.660;2023-12-20T06:53:27;98480.53;;;3.77;85.34
84289;BME280;74602;50.294;18.660;2023-12-20T06:55:52;98481.66;;;3.73;85.70
84289;BME280;74602;50.294;18.660;2023-12-20T06:58:18;98473.28;;;3.70;85.70
84289;BME280;74602;50.294;18.660;2023-12-20T07:00:43;98477.34;;;3.74;85.85
84289;BME280;74602;50.294;18.660;2023-12-20T07:03:09;98481.66;;;3.73;86.08
84289;BME280;74602;50.294;18.660;2023-12-20T07:05:34;98475.03;;;3.69;85.95
84289;BME280;74602;50.294;18.660;2023-12-20T07:08:00;98484.31;;;3.72;86.42
84289;BME280;74602;50.294;18.660;2023-12-20T07:10:25;98480.91;;;3.71;86.79
84289;BME280;74602;50.294;18.660;2023-12-20T07:12:51;98485.13;;;3.72;86.55
84289;BME280;74602;50.294;18.660;2023-12-20T07:15:17;98480.81;;;3.73;86.71
84289;BME280;74602;50.294;18.660;2023-12-20T07:17:43;98480.00;;;3.72;86.59
84289;BME280;74602;50.294;18.660;2023-12-20T07:20:09;98483.41;;;3.73;86.63
84289;BME280;74602;50.294;18.660;2023-12-20T07:22:36;98481.81;;;3.70;87.18
84289;BME280;74602;50.294;18.660;2023-12-20T07:25:02;98479.25;;;3.70;86.85
84289;BME280;74602;50.294;18.660;2023-12-20T07:27:27;98480.00;;;3.72;87.00
84289;BME280;74602;50.294;18.660;2023-12-20T07:29:53;98483.28;;;3.74;86.94
84289;BME280;74602;50.294;18.660;2023-12-20T07:32:18;98491.81;;;3.75;87.24
84289;BME280;74602;50.294;18.660;2023-12-20T07:34:44;98502.00;;;3.76;87.23
84289;BME280;74602;50.294;18.660;2023-12-20T07:37:09;98491.72;;;3.76;87.51
84289;BME280;74602;50.294;18.660;2023-12-20T07:39:39;98496.69;;;3.79;87.58
84289;BME280;74602;50.294;18.660;2023-12-20T07:42:05;98505.38;;;3.77;88.05
84289;BME280;74602;50.294;18.660;2023-12-20T07:44:31;98506.97;;;3.79;88.14
84289;BME280;74602;50.294;18.660;2023-12-20T07:46:56;98512.91;;;3.80;88.03
84289;BME280;74602;50.294;18.660;2023-12-20T07:49:23;98510.44;;;3.78;88.76
84289;BME280;74602;50.294;18.660;2023-12-20T07:51:49;98509.69;;;3.76;88.66
84289;BME280;74602;50.294;18.660;2023-12-20T07:54:15;98499.44;;;3.76;89.08
84289;BME280;74602;50.294;18.660;2023-12-20T07:56:41;98489.25;;;3.75;89.52
84289;BME280;74602;50.294;18.660;2023-12-20T07:59:06;98499.44;;;3.76;89.23
84289;BME280;74602;50.294;18.660;2023-12-20T08:01:31;98493.38;;;3.77;89.61
84289;BME280;74602;50.294;18.660;2023-12-20T08:03:57;98497.69;;;3.77;89.94
84289;BME280;74602;50.294;18.660;2023-12-20T08:06:22;98499.44;;;3.76;89.94
84289;BME280;74602;50.294;18.660;2023-12-20T08:08:48;98501.16;;;3.76;90.35
84289;BME280;74602;50.294;18.660;2023-12-20T08:11:13;98496.13;;;3.74;90.22
84289;BME280;74602;50.294;18.660;2023-12-20T08:13:38;98502.00;;;3.76;90.50
84289;BME280;74602;50.294;18.660;2023-12-20T08:16:04;98489.34;;;3.73;90.95
84289;BME280;74602;50.294;18.660;2023-12-20T08:18:29;98489.34;;;3.73;90.71
84289;BME280;74602;50.294;18.660;2023-12-20T08:20:55;98491.81;;;3.75;91.22
84289;BME280;74602;50.294;18.660;2023-12-20T08:23:20;98498.88;;;3.71;91.16
84289;BME280;74602;50.294;18.660;2023-12-20T08:25:46;98490.34;;;3.71;90.93
84289;BME280;74602;50.294;18.660;2023-12-20T08:28:12;98491.19;;;3.71;91.27
84289;BME280;74602;50.294;18.660;2023-12-20T08:30:37;98492.00;;;3.72;91.44
84289;BME280;74602;50.294;18.660;2023-12-20T08:33:02;98486.88;;;3.72;91.05
84289;BME280;74602;50.294;18.660;2023-12-20T08:35:28;98497.16;;;3.72;91.27
84289;BME280;74602;50.294;18.660;2023-12-20T08:37:53;98499.81;;;3.70;91.51
84289;BME280;74602;50.294;18.660;2023-12-20T08:40:19;98492.31;;;3.67;91.55
84289;BME280;74602;50.294;18.660;2023-12-20T08:42:45;98499.81;;;3.70;91.32
84289;BME280;74602;50.294;18.660;2023-12-20T08:45:11;98498.22;;;3.68;91.64
84289;BME280;74602;50.294;18.660;2023-12-20T08:47:36;98499.19;;;3.67;91.59
84289;BME280;74602;50.294;18.660;2023-12-20T08:50:03;98505.03;;;3.69;91.31
84289;BME280;74602;50.294;18.660;2023-12-20T08:52:28;98509.34;;;3.68;91.40
84289;BME280;74602;50.294;18.660;2023-12-20T08:54:54;98511.19;;;3.66;91.48
84289;BME280;74602;50.294;18.660;2023-12-20T08:57:20;98506.06;;;3.66;91.65
84289;BME280;74602;50.294;18.660;2023-12-20T08:59:47;98515.28;;;3.69;91.59
84289;BME280;74602;50.294;18.660;2023-12-20T09:02:13;98514.47;;;3.68;91.57
84289;BME280;74602;50.294;18.660;2023-12-20T09:04:38;98509.44;;;3.67;91.71
84289;BME280;74602;50.294;18.660;2023-12-20T09:07:04;98505.03;;;3.69;91.66
84289;BME280;74602;50.294;18.660;2023-12-20T09:09:29;98505.78;;;3.71;91.87
84289;BME280;74602;50.294;18.660;2023-12-20T09:11:57;98504.94;;;3.70;91.92
84289;BME280;74602;50.294;18.660;2023-12-20T09:14:22;98507.34;;;3.73;91.98
84289;BME280;74602;50.294;18.660;2023-12-20T09:16:48;98500.53;;;3.72;91.61
84289;BME280;74602;50.294;18.660;2023-12-20T09:19:15;98509.91;;;3.73;92.21
84289;BME280;74602;50.294;18.660;2023-12-20T09:21:41;98505.47;;;3.75;91.94
84289;BME280;74602;50.294;18.660;2023-12-20T09:24:06;98516.66;;;3.74;91.95
84289;BME280;74602;50.294;18.660;2023-12-20T09:26:33;98506.50;;;3.73;91.96
84289;BME280;74602;50.294;18.660;2023-12-20T09:28:59;98507.50;;;3.70;92.06
84289;BME280;74602;50.294;18.660;2023-12-20T09:31:24;98503.28;;;3.69;92.12
84289;BME280;74602;50.294;18.660;2023-12-20T09:33:49;98504.03;;;3.71;91.81
84289;BME280;74602;50.294;18.660;2023-12-20T09:36:15;98500.63;;;3.71;91.91
84289;BME280;74602;50.294;18.660;2023-12-20T09:38:40;98499.72;;;3.72;92.00
84289;BME280;74602;50.294;18.660;2023-12-20T09:41:05;98505.69;;;3.72;92.02
84289;BME280;74602;50.294;18.660;2023-12-20T09:43:35;98497.06;;;3.73;92.24
84289;BME280;74602;50.294;18.660;2023-12-20T09:46:05;98499.81;;;3.70;91.96
84289;BME280;74602;50.294;18.660;2023-12-20T09:48:31;98503.28;;;3.69;92.01
84289;BME280;74602;50.294;18.660;2023-12-20T09:50:56;98498.06;;;3.71;92.28
84289;BME280;74602;50.294;18.660;2023-12-20T09:53:22;98494.50;;;3.73;91.78
84289;BME280;74602;50.294;18.660;2023-12-20T09:55:57;98499.72;;;3.72;91.89
84289;BME280;74602;50.294;18.660;2023-12-20T09:58:23;98501.25;;;3.74;92.12
84289;BME280;74602;50.294;18.660;2023-12-20T10:00:49;98498.81;;;3.73;91.86
84289;BME280;74602;50.294;18.660;2023-12-20T10:03:15;98488.53;;;3.73;91.97
84289;BME280;74602;50.294;18.660;2023-12-20T10:05:43;98482.66;;;3.71;92.38
84289;BME280;74602;50.294;18.660;2023-12-20T10:08:09;98496.22;;;3.73;91.81
84289;BME280;74602;50.294;18.660;2023-12-20T10:10:35;98487.69;;;3.72;91.89
84289;BME280;74602;50.294;18.660;2023-12-20T10:13:11;98499.44;;;3.76;92.13
84289;BME280;74602;50.294;18.660;2023-12-20T10:15:37;98491.72;;;3.76;92.20
84289;BME280;74602;50.294;18.660;2023-12-20T10:18:04;98502.00;;;3.76;92.20
84289;BME280;74602;50.294;18.660;2023-12-20T10:20:30;98487.50;;;3.75;92.20
84289;BME280;74602;50.294;18.660;2023-12-20T10:22:57;98487.41;;;3.77;92.04
84289;BME280;74602;50.294;18.660;2023-12-20T10:25:22;98478.06;;;3.76;91.74
84289;BME280;74602;50.294;18.660;2023-12-20T10:27:50;98484.66;;;3.80;92.04
84289;BME280;74602;50.294;18.660;2023-12-20T10:30:16;98484.75;;;3.78;92.36
84289;BME280;74602;50.294;18.660;2023-12-20T10:32:41;98487.94;;;3.82;92.20
84289;BME280;74602;50.294;18.660;2023-12-20T10:35:08;98486.13;;;3.84;92.27
84289;BME280;74602;50.294;18.660;2023-12-20T10:37:39;98479.22;;;3.84;92.25
84289;BME280;74602;50.294;18.660;2023-12-20T10:40:05;98486.66;;;3.89;92.30
84289;BME280;74602;50.294;18.660;2023-12-20T10:42:32;98475.44;;;3.90;92.20
84289;BME280;74602;50.294;18.660;2023-12-20T10:44:59;98483.91;;;3.92;92.36
84289;BME280;74602;50.294;18.660;2023-12-20T10:47:25;98485.44;;;3.94;92.16
84289;BME280;74602;50.294;18.660;2023-12-20T10:49:52;98485.88;;;4.01;92.58
84289;BME280;74602;50.294;18.660;2023-12-20T10:52:18;98473.97;;;4.00;92.21
84289;BME280;74602;50.294;18.660;2023-12-20T10:54:44;98475.59;;;4.01;92.43
84289;BME280;74602;50.294;18.660;2023-12-20T10:57:10;98477.00;;;4.07;92.37
84289;BME280;74602;50.294;18.660;2023-12-20T10:59:37;98479.34;;;4.10;92.44
84289;BME280;74602;50.294;18.660;2023-12-20T11:02:04;98477.59;;;4.10;92.48
84289;BME280;74602;50.294;18.660;2023-12-20T11:04:47;98472.38;;;4.12;92.63
84289;BME280;74602;50.294;18.660;2023-12-20T11:07:17;98472.38;;;4.12;92.46
84289;BME280;74602;50.294;18.660;2023-12-20T11:13:03;98449.25;;;4.12;92.73
84289;BME280;74602;50.294;18.660;2023-12-20T11:15:37;98447.59;;;4.11;91.92
84289;BME280;74602;50.294;18.660;2023-12-20T11:18:04;98460.13;;;4.15;92.28
84289;BME280;74602;50.294;18.660;2023-12-20T11:20:41;98455.66;;;4.19;92.33
84289;BME280;74602;50.294;18.660;2023-12-20T11:23:08;98449.78;;;4.17;92.45
84289;BME280;74602;50.294;18.660;2023-12-20T11:28:12;98449.38;;;4.23;92.78
84289;BME280;74602;50.294;18.660;2023-12-20T11:30:57;98459.66;;;4.23;92.37
84289;BME280;74602;50.294;18.660;2023-12-20T11:33:44;98456.25;;;4.22;92.35
84289;BME280;74602;50.294;18.660;2023-12-20T11:36:25;98458.00;;;4.22;92.31
84289;BME280;74602;50.294;18.660;2023-12-20T11:38:55;98451.03;;;4.24;92.22
84289;BME280;74602;50.294;18.660;2023-12-20T11:41:22;98458.44;;;4.28;92.61
84289;BME280;74602;50.294;18.660;2023-12-20T11:43:53;98445.66;;;4.27;92.20
84289;BME280;74602;50.294;18.660;2023-12-20T11:46:18;98445.59;;;4.28;92.22
84289;BME280;74602;50.294;18.660;2023-12-20T11:48:44;98441.16;;;4.30;91.55
84289;BME280;74602;50.294;18.660;2023-12-20T11:51:11;98432.63;;;4.30;91.46
84289;BME280;74602;50.294;18.660;2023-12-20T11:53:36;98440.78;;;4.36;91.57
84289;BME280;74602;50.294;18.660;2023-12-20T11:56:06;98443.25;;;4.38;91.18
84289;BME280;74602;50.294;18.660;2023-12-20T11:58:32;98428.34;;;4.43;91.00
84289;BME280;74602;50.294;18.660;2023-12-20T12:00:58;98433.31;;;4.46;90.78
84289;BME280;74602;50.294;18.660;2023-12-20T12:03:23;98424.84;;;4.44;90.62
84289;BME280;74602;50.294;18.660;2023-12-20T12:05:49;98437.50;;;4.47;90.35
84289;BME280;74602;50.294;18.660;2023-12-20T12:08:15;98430.41;;;4.51;90.18
84289;BME280;74602;50.294;18.660;2023-12-20T12:10:40;98426.94;;;4.52;89.91
84289;BME280;74602;50.294;18.660;2023-12-20T12:13:06;98433.81;;;4.51;90.17
84289;BME280;74602;50.294;18.660;2023-12-20T12:15:31;98423.31;;;4.54;89.52
84289;BME280;74602;50.294;18.660;2023-12-20T12:17:57;98426.00;;;4.53;90.12
84289;BME280;74602;50.294;18.660;2023-12-20T12:20:24;98431.75;;;4.56;89.74
84289;BME280;74602;50.294;18.660;2023-12-20T12:23:00;98435.16;;;4.57;89.60
84289;BME280;74602;50.294;18.660;2023-12-20T12:25:26;98434.25;;;4.58;89.59
84289;BME280;74602;50.294;18.660;2023-12-20T12:27:51;98432.50;;;4.58;90.26
84289;BME280;74602;50.294;18.660;2023-12-20T12:30:16;98423.13;;;4.57;89.53
84289;BME280;74602;50.294;18.660;2023-12-20T12:32:44;98434.03;;;4.61;89.98
84289;BME280;74602;50.294;18.660;2023-12-20T12:35:09;98429.69;;;4.61;89.71
84289;BME280;74602;50.294;18.660;2023-12-20T12:37:37;98433.94;;;4.62;90.21
84289;BME280;74602;50.294;18.660;2023-12-20T12:40:05;98420.25;;;4.62;89.70
84289;BME280;74602;50.294;18.660;2023-12-20T12:42:31;98421.06;;;4.62;90.49
84289;BME280;74602;50.294;18.660;2023-12-20T12:44:56;98425.38;;;4.62;89.96
84289;BME280;74602;50.294;18.660;2023-12-20T12:47:21;98427.88;;;4.63;90.28
84289;BME280;74602;50.294;18.660;2023-12-20T12:49:49;98417.75;;;4.60;90.57
84289;BME280;74602;50.294;18.660;2023-12-20T12:52:14;98417.56;;;4.63;89.96
84289;BME280;74602;50.294;18.660;2023-12-20T12:54:40;98417.66;;;4.62;90.69
84289;BME280;74602;50.294;18.660;2023-12-20T12:57:06;98398.75;;;4.63;90.62
84289;BME280;74602;50.294;18.660;2023-12-20T12:59:32;98404.91;;;4.60;90.62